createdAt,value
2022-12-25T00:01:15.974Z,95743.14
2022-12-25T00:03:49.456Z,95746.79
2022-12-25T00:06:19.064Z,95750.08
2022-12-25T00:08:47.561Z,95750.16
2022-12-25T00:11:18.473Z,95753.34
2022-12-25T00:13:47.753Z,95750.86
2022-12-25T00:16:22.062Z,95758.02
2022-12-25T00:18:52.418Z,95760.34
2022-12-25T00:21:21.956Z,95765.83
2022-12-25T00:23:59.929Z,95774.13
2022-12-25T00:26:28.719Z,95771.69
2022-12-25T00:28:58.188Z,95770.20
2022-12-25T00:31:26.935Z,95770.48
2022-12-25T00:33:55.412Z,95779.83
2022-12-25T00:36:24.411Z,95784.78
2022-12-25T00:38:52.844Z,95790.89
2022-12-25T00:41:43.062Z,95796.34
2022-12-25T00:44:14.122Z,95803.29
2022-12-25T00:46:42.906Z,95808.17
2022-12-25T00:49:12.417Z,95810.77
2022-12-25T00:51:41.555Z,95812.27
2022-12-25T00:54:10.199Z,95807.28
2022-12-25T00:56:38.476Z,95810.29
2022-12-25T00:59:06.864Z,95808.20
2022-12-25T01:01:35.318Z,95810.44
2022-12-25T01:04:04.304Z,95810.16
2022-12-25T01:06:33.325Z,95808.05
2022-12-25T01:09:20.464Z,95800.36
2022-12-25T01:11:48.932Z,95795.89
2022-12-25T01:14:17.104Z,95794.80
2022-12-25T01:16:45.596Z,95799.77
2022-12-25T01:19:13.863Z,95801.95
2022-12-25T01:21:42.069Z,95801.27
2022-12-25T01:24:10.237Z,95802.73
2022-12-25T01:26:38.501Z,95803.17
2022-12-25T01:29:07.313Z,95805.33
2022-12-25T01:31:35.913Z,95809.86
2022-12-25T01:34:04.811Z,95809.90
2022-12-25T01:36:33.771Z,95810.27
2022-12-25T01:39:01.926Z,95813.39
2022-12-25T01:41:30.579Z,95814.30
2022-12-25T01:44:27.786Z,95809.21
2022-12-25T01:46:56.673Z,95812.37
2022-12-25T01:49:26.582Z,95813.52
2022-12-25T01:51:59.467Z,95818.05
2022-12-25T01:54:32.244Z,95820.45
2022-12-25T01:57:05.678Z,95820.35
2022-12-25T01:59:33.830Z,95819.20
2022-12-25T02:02:02.637Z,95827.62
2022-12-25T02:04:49.337Z,95823.14
2022-12-25T02:07:20.698Z,95817.85
2022-12-25T02:09:49.389Z,95819.95
2022-12-25T02:12:24.216Z,95820.70
2022-12-25T02:15:02.878Z,95825.36
2022-12-25T02:17:38.993Z,95819.39
2022-12-25T02:20:30.443Z,95819.42
2022-12-25T02:23:33.307Z,95823.50
2022-12-25T02:26:32.130Z,95828.86
2022-12-25T02:29:26.695Z,95831.86
2022-12-25T02:32:02.971Z,95822.98
2022-12-25T02:34:46.396Z,95828.61
2022-12-25T02:37:28.586Z,95830.27
2022-12-25T02:40:06.896Z,95835.96
2022-12-25T02:43:13.486Z,95841.13
2022-12-25T02:46:14.682Z,95845.27
2022-12-25T02:49:11.582Z,95848.80
2022-12-25T02:52:04.582Z,95846.98
2022-12-25T02:54:57.899Z,95847.34
2022-12-25T02:57:51.066Z,95846.61
2022-12-25T03:00:38.508Z,95838.79
2022-12-25T03:03:29.478Z,95847.90
2022-12-25T03:06:22.256Z,95851.59
2022-12-25T03:09:16.495Z,95852.17
2022-12-25T03:11:47.714Z,95856.11
2022-12-25T03:14:34.825Z,95854.95
2022-12-25T03:17:03.222Z,95850.77
2022-12-25T03:19:53.582Z,95850.41
2022-12-25T03:22:47.672Z,95852.69
2022-12-25T03:25:35.192Z,95862.26
2022-12-25T03:28:05.526Z,95869.89
2022-12-25T03:31:12.277Z,95873.95
2022-12-25T03:34:21.962Z,95880.44
2022-12-25T03:37:23.199Z,95886.09
2022-12-25T03:40:25.647Z,95891.58
2022-12-25T03:43:20.692Z,95891.89
2022-12-25T03:46:12.730Z,95894.89
2022-12-25T03:49:04.657Z,95895.52
2022-12-25T03:51:55.583Z,95895.52
2022-12-25T03:54:46.942Z,95893.84
2022-12-25T03:57:34.029Z,95890.55
2022-12-25T04:00:21.121Z,95889.10
2022-12-25T04:03:08.292Z,95887.98
2022-12-25T04:05:55.508Z,95886.38
2022-12-25T04:08:42.510Z,95889.56
2022-12-25T04:11:29.625Z,95900.45
2022-12-25T04:14:17.545Z,95903.37
2022-12-25T04:17:04.779Z,95912.19
2022-12-25T04:19:51.798Z,95918.41
2022-12-25T04:22:39.417Z,95922.39
2022-12-25T04:25:27.132Z,95922.82
2022-12-25T04:28:20.328Z,95918.59
2022-12-25T04:31:07.741Z,95929.54
2022-12-25T04:33:54.692Z,95934.35
2022-12-25T04:36:23.045Z,95927.36
2022-12-25T04:38:51.218Z,95926.91
2022-12-25T04:41:19.490Z,95935.56
2022-12-25T04:43:47.880Z,95941.71
2022-12-25T04:46:16.090Z,95939.44
2022-12-25T04:48:44.435Z,95946.63
2022-12-25T04:51:18.457Z,95949.71
2022-12-25T04:53:47.606Z,95951.41
2022-12-25T04:56:17.047Z,95943.16
2022-12-25T04:58:46.442Z,95942.91
2022-12-25T05:01:15.686Z,95940.95
2022-12-25T05:03:44.051Z,95950.75
2022-12-25T05:06:12.615Z,95951.76
2022-12-25T05:08:41.843Z,95952.70
2022-12-25T05:11:13.268Z,95954.55
2022-12-25T05:13:41.518Z,95953.25
2022-12-25T05:16:21.157Z,95954.64
2022-12-25T05:18:51.203Z,95961.83
2022-12-25T05:21:20.824Z,95962.52
2022-12-25T05:23:52.685Z,95963.86
2022-12-25T05:26:23.806Z,95959.95
2022-12-25T05:28:52.313Z,95962.95
2022-12-25T05:31:21.006Z,95963.19
2022-12-25T05:33:51.571Z,95965.66
2022-12-25T05:36:20.533Z,95964.80
2022-12-25T05:38:48.800Z,95957.39
2022-12-25T05:41:17.285Z,95960.91
2022-12-25T05:43:45.547Z,95955.40
2022-12-25T05:46:14.598Z,95957.41
2022-12-25T05:48:42.779Z,95958.39
2022-12-25T05:51:14.243Z,95961.05
2022-12-25T05:53:43.795Z,95968.20
2022-12-25T05:56:12.273Z,95974.13
2022-12-25T05:58:41.341Z,95979.45
2022-12-25T06:01:22.363Z,95985.73
2022-12-25T06:03:51.316Z,95982.26
2022-12-25T06:06:19.730Z,95983.06
2022-12-25T06:08:48.071Z,95988.42
2022-12-25T06:11:16.311Z,95985.66
2022-12-25T06:13:45.364Z,95995.66
2022-12-25T06:16:14.879Z,95996.33
2022-12-25T06:18:47.909Z,96003.52
2022-12-25T06:21:16.562Z,96007.02
2022-12-25T06:23:45.564Z,96015.02
2022-12-25T06:26:17.783Z,96018.52
2022-12-25T06:28:46.532Z,96017.48
2022-12-25T06:31:18.002Z,96014.46
2022-12-25T06:33:46.779Z,96012.60
2022-12-25T06:36:23.716Z,96014.27
2022-12-25T06:38:53.044Z,96016.44
2022-12-25T06:41:24.525Z,96017.84
2022-12-25T06:43:55.592Z,96020.33
2022-12-25T06:46:27.110Z,96027.17
2022-12-25T06:48:55.679Z,96031.54
2022-12-25T06:51:27.762Z,96035.98
2022-12-25T06:53:56.744Z,96041.59
2022-12-25T06:56:27.927Z,96046.53
2022-12-25T06:59:00.095Z,96048.17
2022-12-25T07:01:30.146Z,96058.16
2022-12-25T07:04:02.558Z,96060.95
2022-12-25T07:06:31.069Z,96067.13
2022-12-25T07:08:59.712Z,96067.28
2022-12-25T07:11:28.764Z,96067.61
2022-12-25T07:13:57.404Z,96062.99
2022-12-25T07:16:26.021Z,96069.67
2022-12-25T07:18:54.294Z,96073.58
2022-12-25T07:21:22.493Z,96082.66
2022-12-25T07:23:50.928Z,96085.33
2022-12-25T07:26:19.341Z,96086.23
2022-12-25T07:28:48.294Z,96086.86
2022-12-25T07:31:18.284Z,96091.40
2022-12-25T07:33:46.914Z,96094.79
2022-12-25T07:36:15.786Z,96097.36
2022-12-25T07:38:50.055Z,96103.36
2022-12-25T07:41:21.280Z,96104.06
2022-12-25T07:43:51.594Z,96114.75
2022-12-25T07:46:21.420Z,96121.09
2022-12-25T07:48:50.721Z,96114.84
2022-12-25T07:51:19.694Z,96117.24
2022-12-25T07:53:47.766Z,96118.91
2022-12-25T07:56:20.900Z,96120.40
2022-12-25T07:58:50.479Z,96122.31
2022-12-25T08:01:26.751Z,96121.38
2022-12-25T08:04:00.410Z,96117.13
2022-12-25T08:06:35.230Z,96114.83
2022-12-25T08:09:09.510Z,96115.13
2022-12-25T08:11:38.487Z,96116.08
2022-12-25T08:14:08.397Z,96122.89
2022-12-25T08:16:39.992Z,96128.57
2022-12-25T08:19:09.680Z,96138.50
2022-12-25T08:21:38.457Z,96141.77
2022-12-25T08:24:08.198Z,96137.96
2022-12-25T08:26:36.551Z,96139.91
2022-12-25T08:29:04.671Z,96136.55
2022-12-25T08:31:37.164Z,96134.02
2022-12-25T08:34:08.446Z,96132.70
2022-12-25T08:36:37.709Z,96140.81
2022-12-25T08:39:05.924Z,96137.11
2022-12-25T08:41:37.179Z,96140.94
2022-12-25T08:44:07.231Z,96143.95
2022-12-25T08:46:36.852Z,96144.11
2022-12-25T08:49:05.796Z,96148.44
2022-12-25T08:51:34.435Z,96149.26
2022-12-25T08:54:02.656Z,96149.33
2022-12-25T08:56:31.253Z,96148.48
2022-12-25T08:58:59.642Z,96148.29
2022-12-25T09:01:29.190Z,96146.65
2022-12-25T09:03:57.567Z,96152.54
2022-12-25T09:06:25.821Z,96157.10
2022-12-25T09:08:55.299Z,96162.46
2022-12-25T09:11:24.326Z,96169.20
2022-12-25T09:13:55.129Z,96158.65
2022-12-25T09:16:23.776Z,96137.77
2022-12-25T09:18:52.408Z,96145.84
2022-12-25T09:21:20.577Z,96157.25
2022-12-25T09:23:49.227Z,96154.90
2022-12-25T09:26:18.941Z,96150.55
2022-12-25T09:28:52.051Z,96149.62
2022-12-25T09:31:22.152Z,96146.84
2022-12-25T09:33:51.151Z,96147.77
2022-12-25T09:36:21.594Z,96150.08
2022-12-25T09:38:49.775Z,96153.23
2022-12-25T09:41:18.520Z,96145.65
2022-12-25T09:44:10.615Z,96153.41
2022-12-25T09:46:51.028Z,96155.48
2022-12-25T09:49:54.194Z,96154.56
2022-12-25T09:52:49.177Z,96153.55
2022-12-25T09:55:20.840Z,96155.24
2022-12-25T09:57:58.888Z,96158.80
2022-12-25T10:00:41.601Z,96154.27
2022-12-25T10:03:12.888Z,96151.81
2022-12-25T10:05:53.486Z,96150.94
2022-12-25T10:08:49.816Z,96142.27
2022-12-25T10:11:42.697Z,96147.55
2022-12-25T10:14:42.383Z,96147.29
2022-12-25T10:17:33.344Z,96144.96
2022-12-25T10:20:04.725Z,96147.19
2022-12-25T10:22:44.575Z,96146.45
2022-12-25T10:25:21.472Z,96146.02
2022-12-25T10:27:54.474Z,96150.05
2022-12-25T10:30:26.130Z,96147.41
2022-12-25T10:32:57.862Z,96147.73
2022-12-25T10:35:29.777Z,96147.42
2022-12-25T10:38:02.396Z,96149.29
2022-12-25T10:41:13.298Z,96153.06
2022-12-25T10:43:51.861Z,96157.63
2022-12-25T10:46:24.610Z,96161.26
2022-12-25T10:49:03.131Z,96161.42
2022-12-25T10:51:35.195Z,96159.78
2022-12-25T10:54:21.688Z,96155.45
2022-12-25T10:57:00.819Z,96152.79
2022-12-25T10:59:43.543Z,96146.17
2022-12-25T11:02:37.441Z,96150.38
2022-12-25T11:05:25.812Z,96145.98
2022-12-25T11:07:55.494Z,96143.60
2022-12-25T11:10:32.902Z,96143.65
2022-12-25T11:13:02.954Z,96146.77
2022-12-25T11:15:42.681Z,96152.44
2022-12-25T11:18:28.639Z,96152.88
2022-12-25T11:21:00.106Z,96155.46
2022-12-25T11:23:31.571Z,96151.35
2022-12-25T11:26:05.854Z,96149.55
2022-12-25T11:28:39.206Z,96143.97
2022-12-25T11:31:15.916Z,96153.02
2022-12-25T11:34:06.635Z,96161.32
2022-12-25T11:36:48.543Z,96162.33
2022-12-25T11:39:23.152Z,96170.91
2022-12-25T11:42:05.989Z,96170.02
2022-12-25T11:45:01.311Z,96172.02
2022-12-25T11:47:54.533Z,96163.98
2022-12-25T11:50:28.817Z,96174.09
2022-12-25T11:53:02.124Z,96172.56
2022-12-25T11:55:57.373Z,96175.55
2022-12-25T11:58:36.482Z,96173.36
2022-12-25T12:01:18.141Z,96173.73
2022-12-25T12:03:46.425Z,96174.63
2022-12-25T12:06:14.779Z,96176.02
2022-12-25T12:08:43.853Z,96175.38
2022-12-25T12:11:35.698Z,96178.98
2022-12-25T12:14:23.229Z,96185.11
2022-12-25T12:16:52.437Z,96189.31
2022-12-25T12:19:29.778Z,96189.60
2022-12-25T12:22:01.739Z,96191.08
2022-12-25T12:24:37.039Z,96197.23
2022-12-25T12:27:25.057Z,96197.04
2022-12-25T12:29:57.717Z,96203.82
2022-12-25T12:32:43.193Z,96202.01
2022-12-25T12:35:22.088Z,96200.05
2022-12-25T12:38:03.576Z,96193.17
2022-12-25T12:40:36.072Z,96188.30
2022-12-25T12:43:06.130Z,96192.48
2022-12-25T12:45:38.414Z,96192.70
2022-12-25T12:48:25.213Z,96191.85
2022-12-25T12:51:11.105Z,96192.89
2022-12-25T12:53:41.999Z,96199.94
2022-12-25T12:56:19.877Z,96201.91
2022-12-25T12:58:51.236Z,96201.83
2022-12-25T13:01:45.140Z,96203.64
2022-12-25T13:04:13.772Z,96209.20
2022-12-25T13:06:58.259Z,96206.67
2022-12-25T13:09:48.412Z,96207.23
2022-12-25T13:12:18.095Z,96205.64
2022-12-25T13:14:48.525Z,96203.09
2022-12-25T13:17:24.194Z,96200.87
2022-12-25T13:19:57.519Z,96202.27
2022-12-25T13:22:36.687Z,96208.36
2022-12-25T13:25:14.798Z,96211.17
2022-12-25T13:27:43.139Z,96208.13
2022-12-25T13:30:14.376Z,96210.41
2022-12-25T13:32:45.958Z,96218.54
2022-12-25T13:35:15.801Z,96212.18
2022-12-25T13:37:45.346Z,96213.52
2022-12-25T13:40:23.890Z,96217.29
2022-12-25T13:43:00.879Z,96211.49
2022-12-25T13:45:31.263Z,96210.23
2022-12-25T13:48:14.740Z,96211.73
2022-12-25T13:50:48.478Z,96214.39
2022-12-25T13:53:18.140Z,96211.54
2022-12-25T13:55:52.752Z,96215.08
2022-12-25T13:58:31.239Z,96219.52
2022-12-25T14:01:02.851Z,96221.68
2022-12-25T14:03:41.316Z,96223.52
2022-12-25T14:06:26.857Z,96224.45
2022-12-25T14:08:58.031Z,96226.67
2022-12-25T14:11:29.729Z,96221.53
2022-12-25T14:14:04.352Z,96224.23
2022-12-25T14:16:33.537Z,96233.52
2022-12-25T14:19:03.080Z,96235.51
2022-12-25T14:21:41.870Z,96234.47
2022-12-25T14:24:15.542Z,96246.19
2022-12-25T14:26:44.428Z,96249.09
2022-12-25T14:29:19.762Z,96251.83
2022-12-25T14:31:50.978Z,96256.52
2022-12-25T14:34:23.233Z,96256.90
2022-12-25T14:36:52.775Z,96250.80
2022-12-25T14:39:29.077Z,96251.88
2022-12-25T14:41:58.728Z,96258.23
2022-12-25T14:44:40.429Z,96265.02
2022-12-25T14:47:18.153Z,96260.26
2022-12-25T14:49:47.810Z,96261.44
2022-12-25T14:52:19.420Z,96262.24
2022-12-25T14:55:02.242Z,96265.52
2022-12-25T14:57:35.223Z,96261.36
2022-12-25T15:00:08.101Z,96263.00
2022-12-25T15:02:45.794Z,96271.37
2022-12-25T15:05:27.683Z,96279.91
2022-12-25T15:08:11.627Z,96287.83
2022-12-25T15:13:33.173Z,96298.06
2022-12-25T15:16:04.855Z,96302.64
2022-12-25T15:18:39.872Z,96305.75
2022-12-25T15:21:21.509Z,96307.45
2022-12-25T15:23:49.790Z,96312.73
2022-12-25T15:26:18.966Z,96318.79
2022-12-25T15:28:47.556Z,96319.75
2022-12-25T15:31:30.630Z,96323.80
2022-12-25T15:34:06.584Z,96327.37
2022-12-25T15:36:34.866Z,96330.95
2022-12-25T15:39:04.424Z,96330.41
2022-12-25T15:41:54.683Z,96337.93
2022-12-25T15:44:25.218Z,96333.98
2022-12-25T15:46:53.671Z,96330.39
2022-12-25T15:49:21.864Z,96330.80
2022-12-25T15:51:50.480Z,96334.29
2022-12-25T15:54:19.243Z,96334.48
2022-12-25T15:56:53.835Z,96347.49
2022-12-25T15:59:23.821Z,96358.02
2022-12-25T16:01:58.172Z,96360.51
2022-12-25T16:04:28.338Z,96364.99
2022-12-25T16:06:56.824Z,96361.86
2022-12-25T16:09:26.694Z,96351.36
2022-12-25T16:11:54.923Z,96344.30
2022-12-25T16:14:24.145Z,96346.60
2022-12-25T16:16:52.387Z,96355.34
2022-12-25T16:19:20.866Z,96353.63
2022-12-25T16:21:49.062Z,96352.87
2022-12-25T16:24:17.672Z,96346.77
2022-12-25T16:26:46.111Z,96338.26
2022-12-25T16:29:15.032Z,96336.35
2022-12-25T16:31:43.370Z,96334.83
2022-12-25T16:34:11.697Z,96333.41
2022-12-25T16:36:41.003Z,96333.48
2022-12-25T16:39:09.143Z,96332.32
2022-12-25T16:41:38.170Z,96335.85
2022-12-25T16:44:09.631Z,96328.02
2022-12-25T16:46:40.381Z,96330.48
2022-12-25T16:49:09.245Z,96334.80
2022-12-25T16:51:37.403Z,96340.79
2022-12-25T16:54:07.111Z,96345.59
2022-12-25T16:56:36.914Z,96348.91
2022-12-25T16:59:04.991Z,96340.39
2022-12-25T17:01:33.924Z,96332.20
2022-12-25T17:04:02.527Z,96328.66
2022-12-25T17:06:31.060Z,96323.58
2022-12-25T17:09:00.661Z,96309.39
2022-12-25T17:11:30.439Z,96300.65
2022-12-25T17:14:02.321Z,96294.98
2022-12-25T17:16:34.182Z,96295.05
2022-12-25T17:19:10.952Z,96303.88
2022-12-25T17:21:40.691Z,96318.26
2022-12-25T17:24:09.387Z,96325.21
2022-12-25T17:26:38.219Z,96330.48
2022-12-25T17:29:06.674Z,96335.39
2022-12-25T17:31:35.248Z,96343.05
2022-12-25T17:34:05.094Z,96350.74
2022-12-25T17:36:34.147Z,96350.24
2022-12-25T17:39:05.393Z,96350.05
2022-12-25T17:41:35.015Z,96351.80
2022-12-25T17:44:04.197Z,96351.00
2022-12-25T17:46:33.119Z,96334.29
2022-12-25T17:49:01.884Z,96323.92
2022-12-25T17:51:32.116Z,96319.34
2022-12-25T17:54:03.341Z,96315.52
2022-12-25T17:56:32.898Z,96311.39
2022-12-25T17:59:06.818Z,96318.04
2022-12-25T18:01:38.552Z,96317.91
2022-12-25T18:04:07.194Z,96326.86
2022-12-25T18:06:37.137Z,96333.52
2022-12-25T18:09:06.630Z,96333.09
2022-12-25T18:11:39.794Z,96334.48
2022-12-25T18:14:12.329Z,96335.00
2022-12-25T18:16:43.491Z,96335.44
2022-12-25T18:19:13.097Z,96338.55
2022-12-25T18:21:41.351Z,96337.42
2022-12-25T18:24:10.432Z,96339.66
2022-12-25T18:26:38.985Z,96338.51
2022-12-25T18:29:07.952Z,96344.67
2022-12-25T18:31:37.272Z,96343.42
2022-12-25T18:34:05.706Z,96346.08
2022-12-25T18:36:33.887Z,96342.70
2022-12-25T18:39:02.510Z,96344.30
2022-12-25T18:41:30.968Z,96344.67
2022-12-25T18:44:00.091Z,96345.27
2022-12-25T18:46:29.596Z,96343.23
2022-12-25T18:48:58.034Z,96344.80
2022-12-25T18:51:32.934Z,96347.57
2022-12-25T18:54:04.733Z,96348.16
2022-12-25T18:56:33.228Z,96352.56
2022-12-25T18:59:01.701Z,96348.45
2022-12-25T19:01:30.413Z,96348.59
2022-12-25T19:04:04.591Z,96350.88
2022-12-25T19:06:34.315Z,96350.08
2022-12-25T19:09:09.263Z,96349.30
2022-12-25T19:11:45.977Z,96350.73
2022-12-25T19:14:15.628Z,96352.86
2022-12-25T19:16:44.914Z,96357.16
2022-12-25T19:19:14.641Z,96360.16
2022-12-25T19:21:43.450Z,96347.93
2022-12-25T19:24:11.577Z,96346.08
2022-12-25T19:26:40.405Z,96335.23
2022-12-25T19:29:08.538Z,96324.06
2022-12-25T19:31:38.928Z,96318.92
2022-12-25T19:34:09.159Z,96323.39
2022-12-25T19:36:38.946Z,96321.38
2022-12-25T19:39:08.744Z,96317.13
2022-12-25T19:41:37.854Z,96313.40
2022-12-25T19:44:06.848Z,96324.19
2022-12-25T19:46:37.753Z,96331.46
2022-12-25T19:49:08.052Z,96334.11
2022-12-25T19:51:39.618Z,96332.83
2022-12-25T19:54:11.531Z,96327.26
2022-12-25T19:56:40.423Z,96318.48
2022-12-25T19:59:08.846Z,96317.25
2022-12-25T20:01:39.144Z,96319.42
2022-12-25T20:04:09.809Z,96325.44
2022-12-25T20:06:42.696Z,96326.83
2022-12-25T20:09:21.084Z,96333.65
2022-12-25T20:11:50.478Z,96333.73
2022-12-25T20:14:19.830Z,96337.52
2022-12-25T20:16:48.047Z,96339.14
2022-12-25T20:19:16.823Z,96337.42
2022-12-25T20:21:45.992Z,96347.81
2022-12-25T20:24:14.221Z,96345.59
2022-12-25T20:26:47.675Z,96342.19
2022-12-25T20:29:16.724Z,96339.03
2022-12-25T20:31:45.142Z,96340.39
2022-12-25T20:34:13.379Z,96343.58
2022-12-25T20:36:45.399Z,96349.88
2022-12-25T20:39:14.334Z,96355.99
2022-12-25T20:41:45.857Z,96349.92
2022-12-25T20:44:16.362Z,96357.23
2022-12-25T20:46:44.419Z,96362.05
2022-12-25T20:49:13.895Z,96361.65
2022-12-25T20:51:44.068Z,96370.98
2022-12-25T20:54:14.040Z,96367.02
2022-12-25T20:56:42.222Z,96367.71
2022-12-25T20:59:12.056Z,96370.46
2022-12-25T21:01:42.350Z,96374.10
2022-12-25T21:04:16.029Z,96371.21
2022-12-25T21:06:44.765Z,96367.67
2022-12-25T21:09:13.427Z,96375.59
2022-12-25T21:11:41.624Z,96378.95
2022-12-25T21:14:11.340Z,96377.61
2022-12-25T21:16:39.645Z,96378.80
2022-12-25T21:19:08.041Z,96378.27
2022-12-25T21:21:36.362Z,96384.41
2022-12-25T21:24:05.134Z,96394.78
2022-12-25T21:26:33.166Z,96397.80
2022-12-25T21:29:04.567Z,96402.60
2022-12-25T21:31:56.061Z,96398.38
2022-12-25T21:34:24.269Z,96395.88
2022-12-25T21:36:52.912Z,96388.21
2022-12-25T21:39:22.076Z,96391.40
2022-12-25T21:41:50.232Z,96389.48
2022-12-25T21:44:19.065Z,96389.98
2022-12-25T21:46:47.231Z,96383.52
2022-12-25T21:49:35.591Z,96379.71
2022-12-25T21:52:09.978Z,96373.98
2022-12-25T21:54:38.368Z,96360.89
2022-12-25T21:57:06.623Z,96355.23
2022-12-25T21:59:35.930Z,96355.25
2022-12-25T22:02:11.703Z,96356.67
2022-12-25T22:04:40.322Z,96363.10
2022-12-25T22:07:19.201Z,96370.81
2022-12-25T22:09:49.947Z,96371.10
2022-12-25T22:12:39.865Z,96363.21
2022-12-25T22:15:10.504Z,96367.88
2022-12-25T22:18:00.063Z,96378.16
2022-12-25T22:20:34.732Z,96387.48
2022-12-25T22:23:03.233Z,96398.75
2022-12-25T22:25:32.947Z,96396.93
2022-12-25T22:28:01.143Z,96395.52
2022-12-25T22:30:30.420Z,96391.88
2022-12-25T22:32:58.865Z,96384.95
2022-12-25T22:35:27.125Z,96380.48
2022-12-25T22:37:56.007Z,96374.95
2022-12-25T22:40:24.461Z,96370.64
2022-12-25T22:42:56.797Z,96365.32
2022-12-25T22:45:24.991Z,96363.79
2022-12-25T22:47:53.240Z,96363.08
2022-12-25T22:50:21.677Z,96361.98
2022-12-25T22:52:49.819Z,96356.93
2022-12-25T22:55:19.455Z,96357.77
2022-12-25T22:57:49.201Z,96359.33
2022-12-25T23:00:17.487Z,96357.83
2022-12-25T23:02:46.262Z,96359.40
2022-12-25T23:05:14.532Z,96358.23
2022-12-25T23:07:42.917Z,96367.39
2022-12-25T23:10:11.701Z,96370.82
2022-12-25T23:12:58.601Z,96375.55
2022-12-25T23:15:28.207Z,96382.02
2022-12-25T23:18:15.226Z,96383.56
2022-12-25T23:21:03.076Z,96381.33
2022-12-25T23:23:50.239Z,96370.56
2022-12-25T23:26:20.411Z,96362.08
2022-12-25T23:29:07.521Z,96365.95
2022-12-25T23:31:38.459Z,96357.98
2022-12-25T23:34:08.170Z,96361.84
2022-12-25T23:36:36.891Z,96362.33
2022-12-25T23:39:09.412Z,96355.27
2022-12-25T23:41:40.605Z,96349.80
2022-12-25T23:44:10.807Z,96341.79
2022-12-25T23:46:39.887Z,96337.23
2022-12-25T23:49:08.796Z,96325.66
2022-12-25T23:51:44.857Z,96320.92
2022-12-25T23:54:15.717Z,96321.73
2022-12-25T23:56:44.280Z,96327.98
2022-12-25T23:59:13.274Z,96320.80
